Time;durP1;ratioP1;P1;durP2;ratioP2;P2;SDS_P1;SDS_P2;PMS_P1;PMS_P2;Temp;Humidity;BMP_temperature;BMP_pressure;BME280_temperature;BME280_humidity;BME280_pressure;Samples;Min_cycle;Max_cycle;Signal;HPM_P1;HPM_P2
2023/01/22 00:02:18;;;;;;;;;;;1.30;83.10;;;;;;5068617;28;19970;-76
2023/01/22 00:04:43;;;;;;;;;;;1.30;83.70;;;;;;5078642;22;19935;-73
2023/01/22 00:07:10;;;;;;;;;;;1.30;83.50;;;;;;5028330;28;19912;-73
2023/01/22 00:09:35;;;;;;;;;;;1.30;83.30;;;;;;5035339;28;20407;-74
2023/01/22 00:12:01;;;;;;;;;;;1.30;83.00;;;;;;5026255;28;19913;-73
2023/01/22 00:14:26;;;;;;;;;;;1.30;83.00;;;;;;5010434;28;19913;-73
2023/01/22 00:16:52;;;;;;;;;;;1.50;82.50;;;;;;5029228;28;19975;-73
2023/01/22 00:19:17;;;;;;;;;;;1.40;82.50;;;;;;5028816;28;19922;-73
2023/01/22 00:21:43;;;;;;;;;;;1.50;81.90;;;;;;5024393;28;19914;-73
2023/01/22 00:24:09;;;;;;;;;;;1.50;81.40;;;;;;5016244;28;20396;-73
2023/01/22 00:26:35;;;;;;;;;;;1.60;81.30;;;;;;5042631;28;20307;-74
2023/01/22 00:29:00;;;;;;;;;;;1.60;81.20;;;;;;5034611;28;19920;-73
2023/01/22 00:31:26;;;;;;;;;;;1.60;81.20;;;;;;5030766;28;20030;-74
2023/01/22 00:33:51;;;;;;;;;;;1.40;81.80;;;;;;5040572;28;20387;-74
2023/01/22 00:36:18;;;;;;;;;;;1.40;82.30;;;;;;5024874;28;19913;-74
2023/01/22 00:38:44;;;;;;;;;;;1.50;82.20;;;;;;5032514;28;20669;-73
2023/01/22 00:41:09;;;;;;;;;;;1.40;82.50;;;;;;5028972;28;19920;-74
2023/01/22 00:43:37;;;;;;;;;;;1.50;82.00;;;;;;5026209;28;19928;-73
2023/01/22 00:46:03;;;;;;;;;;;1.40;82.60;;;;;;5046837;28;19917;-74
2023/01/22 00:48:28;;;;;;;;;;;1.50;81.80;;;;;;5030243;28;20067;-73
2023/01/22 00:50:54;;;;;;;;;;;1.30;82.30;;;;;;5028979;28;20193;-73
2023/01/22 00:53:19;;;;;;;;;;;1.30;82.50;;;;;;5032915;28;19923;-73
2023/01/22 00:55:52;;;;;;;;;;;1.30;82.60;;;;;;5030251;28;19921;-73
2023/01/22 00:58:17;;;;;;;;;;;1.30;82.50;;;;;;5034289;28;20273;-73
2023/01/22 01:00:43;;;;;;;;;;;1.40;82.20;;;;;;5026465;28;19939;-73
2023/01/22 01:03:26;;;;;;;;;;;1.30;82.10;;;;;;5029560;28;20335;-74
2023/01/22 01:05:55;;;;;;;;;;;1.30;82.10;;;;;;5031196;28;19925;-74
2023/01/22 01:08:21;;;;;;;;;;;1.30;82.00;;;;;;5024324;28;19953;-74
2023/01/22 01:10:47;;;;;;;;;;;1.40;81.70;;;;;;5028897;28;20277;-74
2023/01/22 01:13:13;;;;;;;;;;;1.40;81.90;;;;;;5031395;28;19924;-73
2023/01/22 01:15:38;;;;;;;;;;;1.40;81.80;;;;;;5033591;28;19917;-73
2023/01/22 01:18:04;;;;;;;;;;;1.50;82.00;;;;;;5017901;28;19913;-74
2023/01/22 01:20:30;;;;;;;;;;;1.50;81.80;;;;;;5030101;28;20000;-74
2023/01/22 01:22:55;;;;;;;;;;;1.40;82.30;;;;;;5020313;28;19960;-73
2023/01/22 01:25:21;;;;;;;;;;;1.30;82.40;;;;;;5032701;28;19944;-74
2023/01/22 01:27:46;;;;;;;;;;;1.40;82.90;;;;;;5025661;28;19951;-74
2023/01/22 01:30:12;;;;;;;;;;;1.30;83.10;;;;;;5023892;28;19913;-74
2023/01/22 01:32:37;;;;;;;;;;;1.30;83.40;;;;;;5011519;28;20423;-73
2023/01/22 01:35:03;;;;;;;;;;;1.30;83.40;;;;;;5042032;28;19920;-75
2023/01/22 01:37:29;;;;;;;;;;;1.30;83.30;;;;;;5029719;28;20360;-75
2023/01/22 01:39:54;;;;;;;;;;;1.30;83.40;;;;;;5015335;28;19913;-75
2023/01/22 01:42:24;;;;;;;;;;;1.10;83.60;;;;;;5026124;28;20280;-75
2023/01/22 01:45:08;;;;;;;;;;;1.20;84.10;;;;;;5050971;28;19913;-75
2023/01/22 01:47:34;;;;;;;;;;;1.10;83.80;;;;;;5030748;28;20317;-75
2023/01/22 01:50:00;;;;;;;;;;;1.10;84.30;;;;;;5022135;28;19971;-74
2023/01/22 01:52:25;;;;;;;;;;;1.10;84.00;;;;;;5031860;28;19917;-75
2023/01/22 01:54:53;;;;;;;;;;;1.10;83.90;;;;;;5030782;28;20000;-75
2023/01/22 01:57:21;;;;;;;;;;;1.20;84.00;;;;;;5031128;28;19919;-75
2023/01/22 01:59:47;;;;;;;;;;;1.10;83.90;;;;;;5026600;28;20387;-75
2023/01/22 02:02:14;;;;;;;;;;;1.20;83.40;;;;;;5021456;28;21664;-75
2023/01/22 02:04:39;;;;;;;;;;;1.20;83.40;;;;;;5027629;28;20547;-75
2023/01/22 02:07:05;;;;;;;;;;;1.30;83.80;;;;;;5031799;28;19925;-75
2023/01/22 02:09:30;;;;;;;;;;;1.20;83.50;;;;;;5019377;28;19913;-75
2023/01/22 02:11:56;;;;;;;;;;;1.30;83.60;;;;;;5006975;28;19995;-75
2023/01/22 02:14:25;;;;;;;;;;;1.30;83.20;;;;;;5029624;28;20395;-75
2023/01/22 02:17:06;;;;;;;;;;;1.10;83.30;;;;;;5030596;28;20265;-75
2023/01/22 02:19:31;;;;;;;;;;;1.10;83.30;;;;;;5014195;28;19967;-76
2023/01/22 02:21:57;;;;;;;;;;;1.20;83.10;;;;;;5009888;28;19937;-75
2023/01/22 02:24:22;;;;;;;;;;;1.20;83.50;;;;;;5029578;28;19921;-75
2023/01/22 02:26:48;;;;;;;;;;;1.20;83.10;;;;;;5026048;28;19963;-76
2023/01/22 02:29:13;;;;;;;;;;;1.20;82.90;;;;;;5033863;28;19913;-76
2023/01/22 02:31:39;;;;;;;;;;;1.20;83.10;;;;;;5021818;28;19913;-75
2023/01/22 02:34:06;;;;;;;;;;;1.10;83.10;;;;;;5030758;28;19925;-75
2023/01/22 02:36:34;;;;;;;;;;;1.10;83.20;;;;;;5020508;28;21433;-76
2023/01/22 02:39:00;;;;;;;;;;;1.10;83.40;;;;;;5026348;28;19914;-76
2023/01/22 02:41:26;;;;;;;;;;;1.10;83.50;;;;;;5035025;28;19913;-75
2023/01/22 02:43:51;;;;;;;;;;;1.10;83.50;;;;;;5027044;28;20081;-75
2023/01/22 02:46:17;;;;;;;;;;;1.10;83.60;;;;;;5028433;28;20424;-76
2023/01/22 02:48:43;;;;;;;;;;;1.10;83.70;;;;;;5029350;28;19917;-77
2023/01/22 02:51:08;;;;;;;;;;;1.10;83.60;;;;;;5027458;28;20359;-75
2023/01/22 02:53:34;;;;;;;;;;;1.10;83.60;;;;;;5005971;28;19917;-76
2023/01/22 02:55:59;;;;;;;;;;;1.20;83.40;;;;;;5007061;28;20448;-75
2023/01/22 02:58:25;;;;;;;;;;;1.10;83.90;;;;;;5029095;28;19921;-76
2023/01/22 03:00:50;;;;;;;;;;;1.00;84.40;;;;;;5024997;28;19917;-76
2023/01/22 03:03:16;;;;;;;;;;;1.00;84.10;;;;;;5027026;28;20373;-76
2023/01/22 03:05:48;;;;;;;;;;;1.10;83.80;;;;;;5027130;28;19917;-76
2023/01/22 03:08:14;;;;;;;;;;;1.10;84.10;;;;;;5044892;28;20429;-75
2023/01/22 03:10:39;;;;;;;;;;;1.00;83.90;;;;;;5012023;28;19969;-75
2023/01/22 03:21:18;;;;;;;;;;;1.20;84.10;;;;;;5023353;28;19920;-76
2023/01/22 03:24:02;;;;;;;;;;;1.10;84.20;;;;;;5023501;28;19921;-75
2023/01/22 03:26:30;;;;;;;;;;;1.10;84.80;;;;;;5025009;28;19999;-75
2023/01/22 03:28:55;;;;;;;;;;;1.10;85.30;;;;;;5028906;28;19913;-75
2023/01/22 03:31:21;;;;;;;;;;;1.00;85.30;;;;;;5027749;28;19917;-75
2023/01/22 03:33:46;;;;;;;;;;;1.00;85.40;;;;;;5026264;28;20663;-75
2023/01/22 03:36:12;;;;;;;;;;;0.90;86.00;;;;;;5031954;28;19914;-75
2023/01/22 03:38:38;;;;;;;;;;;1.00;86.40;;;;;;5020268;28;19914;-75
2023/01/22 03:41:04;;;;;;;;;;;0.90;86.30;;;;;;5024028;28;19913;-75
2023/01/22 03:43:31;;;;;;;;;;;0.90;86.50;;;;;;5041919;28;19913;-75
2023/01/22 03:46:15;;;;;;;;;;;0.90;86.30;;;;;;5029999;28;19925;-76
2023/01/22 03:48:41;;;;;;;;;;;0.80;86.80;;;;;;5026462;28;19913;-76
2023/01/22 03:51:08;;;;;;;;;;;0.80;87.10;;;;;;5023573;28;19920;-75
2023/01/22 03:53:34;;;;;;;;;;;0.70;87.30;;;;;;5028646;28;19956;-75
2023/01/22 03:56:00;;;;;;;;;;;0.70;87.60;;;;;;5032332;28;19971;-75
2023/01/22 03:58:27;;;;;;;;;;;0.70;87.80;;;;;;5042338;28;20346;-74
2023/01/22 04:00:56;;;;;;;;;;;0.80;87.80;;;;;;5027513;28;19917;-75
2023/01/22 04:03:25;;;;;;;;;;;0.90;87.50;;;;;;5030475;28;19997;-75
2023/01/22 04:05:50;;;;;;;;;;;0.90;87.40;;;;;;5027330;28;20011;-75
2023/01/22 04:08:16;;;;;;;;;;;0.90;87.60;;;;;;5022942;28;20088;-76
2023/01/22 04:10:41;;;;;;;;;;;0.80;87.70;;;;;;5027378;28;19920;-75
2023/01/22 04:13:07;;;;;;;;;;;0.80;87.90;;;;;;5030308;28;20377;-75
2023/01/22 04:15:32;;;;;;;;;;;0.70;88.10;;;;;;5032203;28;20322;-75
2023/01/22 04:17:58;;;;;;;;;;;0.70;88.20;;;;;;5031521;28;19921;-75
2023/01/22 04:20:23;;;;;;;;;;;0.70;88.10;;;;;;5047224;28;19913;-75
2023/01/22 04:22:49;;;;;;;;;;;0.70;88.30;;;;;;5028270;28;19913;-75
2023/01/22 04:25:14;;;;;;;;;;;1.00;88.20;;;;;;5031624;28;19916;-75
2023/01/22 04:27:39;;;;;;;;;;;1.00;88.00;;;;;;5030378;28;19932;-75
2023/01/22 04:30:05;;;;;;;;;;;0.90;87.80;;;;;;5038116;28;19917;-75
2023/01/22 04:32:31;;;;;;;;;;;0.70;88.10;;;;;;5030322;28;19963;-75
2023/01/22 04:34:56;;;;;;;;;;;0.70;88.10;;;;;;5034943;28;19958;-75
2023/01/22 04:37:22;;;;;;;;;;;0.70;88.30;;;;;;5032412;28;20004;-76
2023/01/22 04:39:47;;;;;;;;;;;0.80;88.40;;;;;;5035376;28;19913;-77
2023/01/22 04:42:12;;;;;;;;;;;0.80;88.30;;;;;;5028267;28;19995;-77
2023/01/22 04:44:38;;;;;;;;;;;0.80;88.40;;;;;;5031123;28;19924;-77
2023/01/22 04:47:03;;;;;;;;;;;1.00;88.10;;;;;;5031485;28;19980;-78
2023/01/22 04:49:29;;;;;;;;;;;1.00;88.00;;;;;;5026390;28;19913;-77
2023/01/22 04:51:55;;;;;;;;;;;0.80;88.00;;;;;;5026517;28;20010;-77
2023/01/22 04:54:20;;;;;;;;;;;0.80;88.20;;;;;;5031476;28;20437;-77
2023/01/22 04:56:46;;;;;;;;;;;0.70;88.20;;;;;;5040863;28;19924;-77
2023/01/22 04:59:11;;;;;;;;;;;0.70;88.60;;;;;;5022461;28;20023;-77
2023/01/22 05:01:37;;;;;;;;;;;0.80;88.30;;;;;;5009458;28;19971;-77
2023/01/22 05:04:02;;;;;;;;;;;0.80;88.60;;;;;;5045988;28;19917;-77
2023/01/22 05:06:28;;;;;;;;;;;0.90;88.40;;;;;;5029937;28;19923;-77
2023/01/22 05:08:54;;;;;;;;;;;0.90;88.20;;;;;;5024566;28;19919;-76
2023/01/22 05:11:19;;;;;;;;;;;0.80;88.00;;;;;;5027571;28;20392;-76
2023/01/22 05:13:44;;;;;;;;;;;0.90;88.30;;;;;;5027177;28;20431;-77
2023/01/22 05:16:10;;;;;;;;;;;0.80;87.90;;;;;;5030735;28;20371;-77
2023/01/22 05:18:35;;;;;;;;;;;0.80;88.30;;;;;;5031583;28;19909;-77
2023/01/22 05:21:01;;;;;;;;;;;0.90;88.50;;;;;;5031124;28;19967;-76
2023/01/22 05:23:26;;;;;;;;;;;0.80;88.30;;;;;;5028704;28;19966;-76
2023/01/22 05:25:52;;;;;;;;;;;0.90;88.20;;;;;;5029186;28;19928;-77
2023/01/22 05:28:17;;;;;;;;;;;0.90;88.20;;;;;;5025027;28;19945;-77
2023/01/22 05:30:43;;;;;;;;;;;1.00;88.50;;;;;;5032890;28;19933;-76
2023/01/22 05:33:08;;;;;;;;;;;1.10;87.90;;;;;;5033182;28;19924;-76
2023/01/22 05:35:34;;;;;;;;;;;1.10;87.80;;;;;;5030011;28;19921;-78
2023/01/22 05:37:59;;;;;;;;;;;0.90;87.60;;;;;;5033676;28;20067;-77
2023/01/22 05:40:24;;;;;;;;;;;0.90;88.00;;;;;;5030850;28;19921;-76
2023/01/22 05:42:50;;;;;;;;;;;1.00;87.90;;;;;;5027757;28;19920;-77
2023/01/22 05:45:15;;;;;;;;;;;0.90;87.80;;;;;;5027446;28;19917;-77
2023/01/22 05:47:41;;;;;;;;;;;0.90;88.10;;;;;;5034707;28;20348;-77
2023/01/22 05:50:07;;;;;;;;;;;0.90;87.70;;;;;;5026357;28;19917;-77
2023/01/22 05:52:32;;;;;;;;;;;0.90;87.90;;;;;;5034431;28;19985;-77
2023/01/22 05:55:00;;;;;;;;;;;0.80;87.90;;;;;;5031952;28;19971;-78
2023/01/22 05:57:28;;;;;;;;;;;0.80;88.30;;;;;;5027501;28;19920;-77
2023/01/22 05:59:54;;;;;;;;;;;0.90;88.60;;;;;;5011608;28;19957;-78
2023/01/22 06:02:19;;;;;;;;;;;1.10;88.60;;;;;;5040839;28;20345;-77
2023/01/22 06:04:47;;;;;;;;;;;1.00;87.80;;;;;;5097264;22;19951;-88
2023/01/22 06:07:13;;;;;;;;;;;1.00;87.90;;;;;;5062850;28;19913;-86
2023/01/22 06:09:38;;;;;;;;;;;0.90;87.70;;;;;;5078128;28;20542;-88
2023/01/22 06:12:04;;;;;;;;;;;1.00;88.00;;;;;;5067827;28;19912;-88
2023/01/22 06:14:32;;;;;;;;;;;0.90;87.80;;;;;;5041040;28;19921;-89
2023/01/22 06:16:58;;;;;;;;;;;0.90;87.90;;;;;;5048339;28;19977;-88
2023/01/22 06:19:23;;;;;;;;;;;0.90;87.70;;;;;;5068409;28;19913;-87
2023/01/22 06:21:49;;;;;;;;;;;0.80;87.80;;;;;;5064493;28;19935;-88
2023/01/22 06:24:14;;;;;;;;;;;0.80;87.90;;;;;;5052165;28;19912;-89
2023/01/22 06:26:40;;;;;;;;;;;0.80;88.00;;;;;;5045808;28;20465;-89
2023/01/22 06:29:05;;;;;;;;;;;0.80;88.30;;;;;;5058394;28;19913;-88
2023/01/22 06:31:31;;;;;;;;;;;0.90;88.20;;;;;;5061840;28;20397;-88
2023/01/22 06:33:56;;;;;;;;;;;0.90;88.30;;;;;;5054785;28;19936;-88
2023/01/22 06:36:22;;;;;;;;;;;0.90;88.10;;;;;;5074303;28;19947;-86
2023/01/22 06:38:48;;;;;;;;;;;0.90;88.10;;;;;;5100137;28;19948;-87
2023/01/22 06:41:13;;;;;;;;;;;1.00;88.10;;;;;;5076695;28;20266;-86
2023/01/22 06:43:38;;;;;;;;;;;1.10;87.70;;;;;;5069056;28;19920;-87
2023/01/22 06:46:04;;;;;;;;;;;0.90;87.90;;;;;;5062485;28;19950;-87
2023/01/22 06:48:29;;;;;;;;;;;0.80;88.10;;;;;;5058314;28;19932;-87
2023/01/22 06:50:56;;;;;;;;;;;1.00;88.00;;;;;;5067053;28;19916;-88
2023/01/22 06:53:21;;;;;;;;;;;0.90;87.70;;;;;;5061486;28;19924;-87
2023/01/22 06:55:47;;;;;;;;;;;1.00;87.90;;;;;;5063417;28;19923;-88
2023/01/22 06:58:12;;;;;;;;;;;0.90;88.20;;;;;;5071109;28;19965;-88
2023/01/22 07:00:38;;;;;;;;;;;0.80;88.30;;;;;;5048045;28;20374;-87
2023/01/22 07:03:04;;;;;;;;;;;0.70;88.40;;;;;;5071521;28;19997;-87
2023/01/22 07:05:29;;;;;;;;;;;0.70;88.70;;;;;;5067487;28;20556;-88
2023/01/22 07:07:55;;;;;;;;;;;0.80;88.90;;;;;;5053266;28;20076;-86
2023/01/22 07:10:21;;;;;;;;;;;0.80;88.80;;;;;;5076286;28;19960;-87
2023/01/22 07:12:47;;;;;;;;;;;1.00;89.00;;;;;;5049804;28;19920;-85
2023/01/22 07:15:12;;;;;;;;;;;1.10;88.70;;;;;;5063587;28;20294;-86
2023/01/22 07:17:38;;;;;;;;;;;1.00;88.60;;;;;;5052208;28;19912;-88
2023/01/22 07:20:04;;;;;;;;;;;0.90;88.40;;;;;;5048380;28;19924;-88
2023/01/22 07:22:30;;;;;;;;;;;0.90;88.70;;;;;;5037746;28;19915;-87
2023/01/22 07:24:56;;;;;;;;;;;1.00;88.60;;;;;;5059396;28;20309;-87
2023/01/22 07:27:21;;;;;;;;;;;1.00;88.60;;;;;;5050850;28;19917;-87
2023/01/22 07:29:48;;;;;;;;;;;1.00;88.70;;;;;;5066844;28;20231;-86
2023/01/22 07:32:14;;;;;;;;;;;1.00;88.60;;;;;;5051660;28;20278;-86
2023/01/22 07:34:39;;;;;;;;;;;1.10;88.80;;;;;;5070538;28;19919;-87
2023/01/22 07:37:05;;;;;;;;;;;1.10;88.80;;;;;;5068715;28;20038;-86
2023/01/22 07:39:30;;;;;;;;;;;1.10;88.40;;;;;;5070432;28;19917;-87
2023/01/22 07:41:59;;;;;;;;;;;1.00;88.30;;;;;;5068945;28;19921;-87
2023/01/22 07:44:25;;;;;;;;;;;1.10;88.60;;;;;;5068556;28;19927;-87
2023/01/22 07:46:51;;;;;;;;;;;1.10;88.40;;;;;;5071675;28;20010;-88
2023/01/22 07:49:16;;;;;;;;;;;0.90;88.40;;;;;;5056974;28;19912;-87
2023/01/22 07:51:41;;;;;;;;;;;1.00;88.60;;;;;;5072741;28;19916;-88
2023/01/22 07:54:07;;;;;;;;;;;0.90;88.60;;;;;;5073825;28;19920;-88
2023/01/22 07:56:32;;;;;;;;;;;1.00;88.90;;;;;;5070790;28;19943;-86
2023/01/22 07:58:58;;;;;;;;;;;1.00;88.60;;;;;;5096507;28;19988;-87
2023/01/22 08:01:23;;;;;;;;;;;1.10;88.90;;;;;;5078195;28;19919;-86
2023/01/22 08:03:58;;;;;;;;;;;1.10;88.90;;;;;;5071953;28;20018;-91
2023/01/22 08:06:23;;;;;;;;;;;1.00;88.30;;;;;;5073055;28;19929;-83
2023/01/22 08:08:49;;;;;;;;;;;1.10;88.60;;;;;;5084716;28;19976;-83
2023/01/22 08:11:14;;;;;;;;;;;0.90;88.70;;;;;;5096968;28;19905;-85
2023/01/22 08:13:40;;;;;;;;;;;0.90;88.80;;;;;;5089103;28;20386;-86
2023/01/22 08:16:08;;;;;;;;;;;1.00;89.30;;;;;;5053876;28;20603;-88
2023/01/22 08:18:33;;;;;;;;;;;1.00;89.10;;;;;;5053226;28;20443;-88
2023/01/22 08:21:00;;;;;;;;;;;1.20;88.90;;;;;;5072163;28;19917;-87
2023/01/22 08:23:25;;;;;;;;;;;1.20;88.90;;;;;;5058592;28;19955;-87
2023/01/22 08:25:51;;;;;;;;;;;1.20;88.40;;;;;;5075251;28;19942;-85
2023/01/22 08:28:16;;;;;;;;;;;1.20;88.60;;;;;;5084859;28;20445;-86
2023/01/22 08:30:42;;;;;;;;;;;1.20;88.60;;;;;;5066150;28;19913;-90
2023/01/22 08:33:07;;;;;;;;;;;1.40;88.50;;;;;;5073724;28;20017;-89
2023/01/22 08:35:36;;;;;;;;;;;1.30;88.30;;;;;;5047180;28;19948;-89
2023/01/22 08:38:02;;;;;;;;;;;1.30;88.30;;;;;;5059776;28;19924;-90
2023/01/22 08:40:28;;;;;;;;;;;1.30;88.40;;;;;;5054187;28;20298;-90
2023/01/22 08:42:53;;;;;;;;;;;1.40;88.60;;;;;;5050422;28;19935;-89
2023/01/22 08:45:19;;;;;;;;;;;1.30;88.20;;;;;;5072189;28;19920;-87
2023/01/22 08:47:45;;;;;;;;;;;1.30;88.20;;;;;;5048121;28;20340;-89
2023/01/22 08:50:11;;;;;;;;;;;1.30;88.40;;;;;;5051410;28;20400;-90
2023/01/22 08:52:36;;;;;;;;;;;1.30;88.30;;;;;;5066628;28;19924;-91
2023/01/22 08:55:04;;;;;;;;;;;1.20;88.30;;;;;;5073984;28;19912;-90
2023/01/22 08:57:29;;;;;;;;;;;1.40;88.70;;;;;;5048195;28;19999;-89
2023/01/22 08:59:55;;;;;;;;;;;1.40;88.40;;;;;;5072129;28;20008;-90
2023/01/22 09:02:20;;;;;;;;;;;1.40;88.40;;;;;;5049111;28;19919;-90
2023/01/22 09:04:46;;;;;;;;;;;1.40;88.50;;;;;;5063450;28;19921;-88
2023/01/22 09:07:11;;;;;;;;;;;1.50;88.20;;;;;;5056609;28;19917;-90
2023/01/22 09:09:37;;;;;;;;;;;1.50;88.10;;;;;;5050076;28;19912;-87
2023/01/22 09:12:02;;;;;;;;;;;1.60;88.30;;;;;;5064564;28;19912;-87
2023/01/22 09:14:28;;;;;;;;;;;1.70;88.10;;;;;;5064218;28;19923;-88
2023/01/22 09:16:53;;;;;;;;;;;1.70;88.00;;;;;;5079858;28;19919;-88
2023/01/22 09:19:18;;;;;;;;;;;1.70;87.80;;;;;;5070381;28;19908;-89
2023/01/22 09:21:44;;;;;;;;;;;1.70;87.20;;;;;;5069136;28;19912;-88
2023/01/22 09:24:10;;;;;;;;;;;1.70;87.40;;;;;;5056256;28;20586;-88
2023/01/22 09:26:38;;;;;;;;;;;1.60;87.40;;;;;;5069655;28;19912;-90
2023/01/22 09:29:04;;;;;;;;;;;1.60;87.60;;;;;;5071969;28;19920;-91
2023/01/22 09:31:30;;;;;;;;;;;1.60;87.70;;;;;;5056441;28;19956;-90
2023/01/22 09:33:56;;;;;;;;;;;1.70;87.90;;;;;;5063968;28;19924;-91
2023/01/22 09:36:22;;;;;;;;;;;1.60;87.80;;;;;;5069288;28;19912;-89
2023/01/22 09:38:47;;;;;;;;;;;1.70;87.90;;;;;;5069711;28;19967;-87
2023/01/22 09:41:33;;;;;;;;;;;1.70;87.80;;;;;;5067112;28;19916;-87
2023/01/22 09:44:00;;;;;;;;;;;1.60;87.70;;;;;;5064685;28;20197;-86
2023/01/22 09:46:28;;;;;;;;;;;1.70;87.80;;;;;;5072707;28;19916;-87
2023/01/22 09:49:01;;;;;;;;;;;1.80;87.40;;;;;;5059824;28;19913;-87
2023/01/22 09:51:26;;;;;;;;;;;1.90;87.00;;;;;;5055857;28;19912;-86
2023/01/22 09:53:56;;;;;;;;;;;1.70;87.50;;;;;;5069069;28;19923;-87
2023/01/22 09:56:27;;;;;;;;;;;1.80;87.80;;;;;;5043140;28;19916;-86
2023/01/22 09:58:54;;;;;;;;;;;1.70;87.50;;;;;;5041336;28;20393;-88
2023/01/22 10:01:20;;;;;;;;;;;1.70;87.60;;;;;;5045734;28;20399;-85
2023/01/22 10:03:49;;;;;;;;;;;1.80;87.50;;;;;;5064664;28;19944;-91
2023/01/22 10:06:20;;;;;;;;;;;1.80;87.70;;;;;;5043963;28;19917;-87
2023/01/22 10:09:07;;;;;;;;;;;1.80;87.70;;;;;;5054024;28;20297;-87
2023/01/22 10:11:33;;;;;;;;;;;1.80;87.60;;;;;;5056091;28;19913;-88
2023/01/22 10:13:59;;;;;;;;;;;1.90;87.60;;;;;;5052384;28;19962;-85
2023/01/22 10:16:25;;;;;;;;;;;1.80;87.20;;;;;;5047540;28;19990;-88
2023/01/22 10:18:54;;;;;;;;;;;1.70;87.40;;;;;;5050575;28;19913;-87
2023/01/22 10:21:21;;;;;;;;;;;1.80;87.80;;;;;;5054352;28;19916;-87
2023/01/22 10:23:47;;;;;;;;;;;1.90;87.90;;;;;;5053980;28;20381;-88
2023/01/22 10:26:23;;;;;;;;;;;2.00;87.80;;;;;;5081141;28;19919;-88
2023/01/22 10:28:56;;;;;;;;;;;2.10;87.60;;;;;;5055273;28;20053;-87
2023/01/22 10:31:27;;;;;;;;;;;2.10;87.50;;;;;;5093428;28;19913;-87
2023/01/22 10:33:57;;;;;;;;;;;2.10;87.10;;;;;;5058085;28;19916;-85
2023/01/22 10:36:23;;;;;;;;;;;2.10;87.20;;;;;;5071903;28;19936;-84
2023/01/22 10:38:49;;;;;;;;;;;2.10;87.20;;;;;;5064024;28;20011;-88
2023/01/22 10:41:19;;;;;;;;;;;2.20;87.00;;;;;;5049164;28;19912;-85
2023/01/22 10:43:47;;;;;;;;;;;2.20;86.60;;;;;;5063459;28;19913;-87
2023/01/22 10:46:15;;;;;;;;;;;2.20;86.90;;;;;;5066130;28;20317;-87
2023/01/22 10:48:44;;;;;;;;;;;2.20;86.80;;;;;;5067828;28;19912;-87
2023/01/22 10:51:12;;;;;;;;;;;2.20;86.20;;;;;;5043181;28;19917;-86
2023/01/22 10:53:42;;;;;;;;;;;2.00;86.70;;;;;;5052743;28;19962;-89
2023/01/22 10:56:10;;;;;;;;;;;2.00;86.70;;;;;;5052673;28;19999;-85
2023/01/22 10:58:37;;;;;;;;;;;2.10;87.10;;;;;;5052264;28;19912;-84
2023/01/22 11:01:05;;;;;;;;;;;2.10;87.30;;;;;;5064271;28;19947;-85
2023/01/22 11:03:33;;;;;;;;;;;2.20;87.10;;;;;;5060701;28;20374;-85
2023/01/22 11:06:13;;;;;;;;;;;2.20;86.90;;;;;;5044176;28;19923;-87
2023/01/22 11:08:44;;;;;;;;;;;2.30;86.60;;;;;;5063538;28;20049;-85
2023/01/22 11:11:10;;;;;;;;;;;2.20;86.20;;;;;;5045184;28;19984;-86
2023/01/22 11:13:42;;;;;;;;;;;2.20;86.60;;;;;;5045939;28;19931;-85
2023/01/22 11:16:09;;;;;;;;;;;2.20;86.50;;;;;;5069784;28;19912;-84
2023/01/22 11:18:36;;;;;;;;;;;2.10;86.80;;;;;;5071109;28;20374;-85
2023/01/22 11:21:04;;;;;;;;;;;2.10;87.20;;;;;;5069156;28;19916;-84
2023/01/22 11:23:46;;;;;;;;;;;2.20;86.80;;;;;;5049656;28;20351;-83
2023/01/22 11:26:27;;;;;;;;;;;2.30;87.00;;;;;;5055862;28;19963;-83
2023/01/22 11:28:55;;;;;;;;;;;2.30;87.30;;;;;;5085412;28;19935;-84
2023/01/22 11:31:29;;;;;;;;;;;2.10;86.70;;;;;;5067912;28;19912;-82
2023/01/22 11:33:56;;;;;;;;;;;2.20;87.30;;;;;;5073140;28;19940;-84
2023/01/22 11:36:26;;;;;;;;;;;2.20;87.10;;;;;;5062750;28;19913;-83
2023/01/22 11:38:51;;;;;;;;;;;2.30;87.10;;;;;;5068833;28;19919;-84
2023/01/22 11:41:25;;;;;;;;;;;2.30;86.80;;;;;;5069689;28;20011;-85
2023/01/22 11:43:54;;;;;;;;;;;2.20;86.60;;;;;;5067487;28;19916;-84
2023/01/22 11:46:29;;;;;;;;;;;2.20;86.70;;;;;;5051292;28;19916;-83
2023/01/22 11:49:13;;;;;;;;;;;2.10;86.80;;;;;;5045520;28;20363;-85
2023/01/22 11:51:45;;;;;;;;;;;2.20;87.30;;;;;;5053750;28;20293;-84
2023/01/22 11:54:14;;;;;;;;;;;2.10;87.00;;;;;;5065894;28;19978;-83
2023/01/22 11:56:55;;;;;;;;;;;2.10;87.10;;;;;;5068995;28;19924;-84
2023/01/22 11:59:27;;;;;;;;;;;2.20;87.20;;;;;;5068081;28;19916;-85
2023/01/22 12:01:55;;;;;;;;;;;2.20;87.10;;;;;;5043809;28;19936;-84
2023/01/22 12:04:28;;;;;;;;;;;2.10;86.80;;;;;;5068362;28;19919;-85
2023/01/22 12:07:05;;;;;;;;;;;2.10;87.10;;;;;;5067645;28;19917;-84
2023/01/22 12:09:44;;;;;;;;;;;2.10;87.10;;;;;;5078226;22;19928;-80
2023/01/22 12:12:15;;;;;;;;;;;2.00;87.20;;;;;;5046399;28;19931;-80
2023/01/22 12:14:59;;;;;;;;;;;2.00;87.20;;;;;;5059563;28;20388;-81
2023/01/22 12:17:51;;;;;;;;;;;2.10;87.30;;;;;;5070537;28;19913;-81
2023/01/22 12:20:35;;;;;;;;;;;2.10;87.20;;;;;;5091785;28;19917;-80
2023/01/22 12:23:05;;;;;;;;;;;2.10;87.40;;;;;;5083219;28;20291;-81
2023/01/22 12:25:34;;;;;;;;;;;2.20;87.50;;;;;;5063357;28;19927;-80
2023/01/22 12:28:17;;;;;;;;;;;2.30;86.70;;;;;;5088209;28;19972;-81
2023/01/22 12:30:46;;;;;;;;;;;2.20;86.70;;;;;;5091227;28;20376;-81
2023/01/22 12:33:13;;;;;;;;;;;2.10;87.00;;;;;;5076787;28;19983;-80
2023/01/22 12:35:39;;;;;;;;;;;2.10;87.20;;;;;;5092812;28;19912;-81
2023/01/22 12:38:17;;;;;;;;;;;2.00;87.20;;;;;;5076950;28;19916;-80
2023/01/22 12:40:52;;;;;;;;;;;2.10;87.30;;;;;;5073335;28;19912;-80
2023/01/22 12:43:20;;;;;;;;;;;2.10;87.40;;;;;;5092044;28;20003;-82
2023/01/22 12:45:54;;;;;;;;;;;2.20;87.40;;;;;;5068885;28;20310;-84
2023/01/22 12:48:24;;;;;;;;;;;2.20;87.20;;;;;;5093707;28;19912;-82
2023/01/22 12:50:52;;;;;;;;;;;2.20;87.10;;;;;;5070677;28;19912;-82
2023/01/22 12:53:23;;;;;;;;;;;2.20;86.80;;;;;;5087853;28;19917;-81
2023/01/22 12:55:58;;;;;;;;;;;2.20;87.20;;;;;;5089459;28;20387;-81
2023/01/22 12:58:25;;;;;;;;;;;2.20;87.20;;;;;;5071933;28;19912;-81
2023/01/22 13:01:10;;;;;;;;;;;2.30;87.10;;;;;;5081131;28;19956;-81
2023/01/22 13:03:36;;;;;;;;;;;2.30;86.90;;;;;;5072582;28;19916;-81
2023/01/22 13:06:03;;;;;;;;;;;2.30;86.80;;;;;;5081469;28;19946;-82
2023/01/22 13:08:39;;;;;;;;;;;2.40;86.80;;;;;;5081500;28;19974;-81
2023/01/22 13:11:07;;;;;;;;;;;2.30;87.10;;;;;;5072231;28;19962;-81
2023/01/22 13:13:32;;;;;;;;;;;2.40;87.00;;;;;;5092083;28;19938;-80
2023/01/22 13:16:00;;;;;;;;;;;2.40;86.90;;;;;;5075768;28;19912;-79
2023/01/22 13:18:27;;;;;;;;;;;2.40;86.80;;;;;;5082132;28;19967;-81
2023/01/22 13:20:52;;;;;;;;;;;2.30;86.70;;;;;;5089893;28;19967;-80
2023/01/22 13:23:18;;;;;;;;;;;2.30;87.10;;;;;;5078838;28;19912;-79
2023/01/22 13:25:44;;;;;;;;;;;2.40;86.80;;;;;;5100155;28;19916;-80
2023/01/22 13:28:15;;;;;;;;;;;2.30;86.70;;;;;;5099379;28;19940;-81
2023/01/22 13:30:41;;;;;;;;;;;2.30;86.60;;;;;;5081734;28;19935;-81
2023/01/22 13:33:14;;;;;;;;;;;2.30;87.00;;;;;;5099897;28;20249;-79
2023/01/22 13:35:41;;;;;;;;;;;2.30;87.20;;;;;;5095029;28;20299;-79
2023/01/22 13:38:15;;;;;;;;;;;2.20;87.30;;;;;;5069464;28;19916;-78
2023/01/22 13:40:40;;;;;;;;;;;2.20;87.40;;;;;;5089677;28;19912;-80
2023/01/22 13:43:06;;;;;;;;;;;2.20;87.30;;;;;;5090701;28;19934;-80
2023/01/22 13:45:32;;;;;;;;;;;2.30;87.20;;;;;;5082976;28;20130;-82
2023/01/22 13:48:01;;;;;;;;;;;2.30;87.30;;;;;;5064891;28;19912;-82
2023/01/22 13:50:28;;;;;;;;;;;2.40;87.20;;;;;;5072067;28;20007;-82
2023/01/22 13:52:58;;;;;;;;;;;2.30;86.90;;;;;;5083374;28;20698;-82
2023/01/22 13:55:25;;;;;;;;;;;2.20;87.00;;;;;;5085781;28;19923;-83
2023/01/22 13:57:52;;;;;;;;;;;2.20;86.90;;;;;;5084173;28;19912;-83
2023/01/22 14:00:22;;;;;;;;;;;2.20;87.20;;;;;;5081961;28;19912;-84
2023/01/22 14:02:48;;;;;;;;;;;2.20;87.30;;;;;;5084392;28;19923;-82
2023/01/22 14:05:17;;;;;;;;;;;2.20;87.20;;;;;;5076363;28;19916;-82
2023/01/22 14:07:43;;;;;;;;;;;2.10;87.20;;;;;;5085217;28;19981;-82
2023/01/22 14:10:11;;;;;;;;;;;2.30;87.30;;;;;;5079951;28;19928;-84
2023/01/22 14:12:36;;;;;;;;;;;2.30;87.60;;;;;;5090097;28;20324;-85
2023/01/22 14:15:11;;;;;;;;;;;2.30;87.30;;;;;;5080903;28;19934;-82
2023/01/22 14:17:37;;;;;;;;;;;2.40;87.20;;;;;;5068876;28;19912;-83
2023/01/22 14:20:03;;;;;;;;;;;2.30;87.30;;;;;;5123171;22;19935;-81
2023/01/22 14:22:28;;;;;;;;;;;2.30;87.40;;;;;;5066647;28;19917;-82
2023/01/22 14:24:54;;;;;;;;;;;2.40;87.40;;;;;;5078618;28;19923;-81
2023/01/22 14:27:26;;;;;;;;;;;2.40;87.60;;;;;;5067606;28;19912;-82
2023/01/22 14:29:52;;;;;;;;;;;2.50;87.00;;;;;;5047871;28;19913;-82
2023/01/22 14:32:17;;;;;;;;;;;2.40;86.80;;;;;;5052890;28;19913;-82
2023/01/22 14:34:43;;;;;;;;;;;2.30;86.70;;;;;;5055392;28;20279;-82
2023/01/22 14:37:08;;;;;;;;;;;2.30;87.30;;;;;;5050570;28;20319;-82
2023/01/22 14:39:34;;;;;;;;;;;2.30;87.10;;;;;;5049759;28;19958;-82
2023/01/22 14:42:00;;;;;;;;;;;2.20;87.10;;;;;;5036641;28;19913;-81